Time;durP1;ratioP1;P1;durP2;ratioP2;P2;SDS_P1;SDS_P2;PMS_P1;PMS_P2;Temp;Humidity;BMP_temperature;BMP_pressure;BME280_temperature;BME280_humidity;BME280_pressure;Samples;Min_cycle;Max_cycle;Signal;HPM_P1;HPM_P2
2021/06/13 00:00:42;;;;;;;6.30;4.10;;;;;;;13.03;80.51;100006.75;102402;1117;68715;-66
2021/06/13 00:03:02;;;;;;;6.60;3.80;;;;;;;12.94;80.56;100004.48;102384;1118;84755;-65
2021/06/13 00:05:13;;;;;;;10.30;4.10;;;;;;;12.94;80.59;100007.19;102412;1116;74393;-67
2021/06/13 00:07:20;;;;;;;5.50;3.90;;;;;;;12.91;80.49;100007.65;102357;1116;80486;-67
2021/06/13 00:09:31;;;;;;;7.70;4.10;;;;;;;12.85;80.59;100005.78;102354;1116;68681;-65
2021/06/13 00:11:39;;;;;;;4.80;3.50;;;;;;;12.80;80.36;100011.02;102415;1116;67981;-68
2021/06/13 00:13:49;;;;;;;6.60;4.40;;;;;;;12.75;80.59;100014.34;102380;1116;84966;-68
2021/06/13 00:15:56;;;;;;;5.50;3.80;;;;;;;12.63;80.45;100010.64;102402;1116;73523;-67
2021/06/13 00:18:04;;;;;;;5.90;4.30;;;;;;;12.58;80.56;100015.84;102376;1116;80711;-67
2021/06/13 00:20:16;;;;;;;8.20;3.50;;;;;;;12.51;80.41;100014.20;102415;1116;68282;-65
2021/06/13 00:22:23;;;;;;;7.10;3.70;;;;;;;12.54;80.59;100019.19;102408;1116;69415;-64
2021/06/13 00:24:30;;;;;;;6.70;4.00;;;;;;;12.57;80.55;100016.91;102394;1116;83986;-66
2021/06/13 00:26:38;;;;;;;9.30;4.30;;;;;;;12.58;80.43;100023.16;102399;1116;74459;-66
2021/06/13 00:28:45;;;;;;;6.20;3.70;;;;;;;12.54;80.41;100017.33;102382;1118;82121;-66
2021/06/13 00:30:55;;;;;;;6.90;3.30;;;;;;;12.50;80.41;100021.48;102347;1117;68645;-66
2021/06/13 00:33:03;;;;;;;7.30;3.50;;;;;;;12.41;80.58;100017.35;102405;1117;68070;-64
2021/06/13 00:35:14;;;;;;;6.40;4.10;;;;;;;12.39;80.58;100020.25;102377;1116;84665;-66
2021/06/13 00:37:25;;;;;;;7.30;3.80;;;;;;;12.39;80.59;100014.83;102418;1116;74271;-67
2021/06/13 00:39:32;;;;;;;9.30;3.70;;;;;;;12.37;80.52;100019.64;102375;1116;81690;-67
2021/06/13 00:41:39;;;;;;;6.40;3.50;;;;;;;12.34;80.59;100011.93;102390;1116;67800;-66
2021/06/13 00:43:47;;;;;;;4.90;3.50;;;;;;;12.32;80.66;100014.02;102377;1116;69414;-66
2021/06/13 00:45:54;;;;;;;7.30;3.90;;;;;;;12.23;80.66;100014.43;102370;1116;85716;-68
2021/06/13 00:48:01;;;;;;;7.80;3.80;;;;;;;12.17;80.63;100012.55;102381;1116;75823;-67
2021/06/13 00:50:17;;;;;;;6.20;3.70;;;;;;;12.13;80.47;100014.03;102350;1116;80831;-69
2021/06/13 00:52:26;;;;;;;6.80;3.30;;;;;;;12.10;80.67;100019.86;102402;1116;67042;-66
2021/06/13 00:54:33;;;;;;;7.00;3.80;;;;;;;12.00;80.72;100017.58;102422;1116;69023;-65
2021/06/13 00:56:41;;;;;;;7.70;3.60;;;;;;;11.99;80.75;100018.61;102338;1116;84958;-66
2021/06/13 00:58:50;;;;;;;7.30;3.40;;;;;;;11.98;80.83;100022.34;102379;1116;73874;-65
2021/06/13 01:00:57;;;;;;;5.70;3.10;;;;;;;11.96;80.87;100018.18;102413;1116;82146;-65
2021/06/13 01:03:06;;;;;;;5.20;3.50;;;;;;;11.94;80.87;100021.11;102408;1116;66703;-65
2021/06/13 01:05:17;;;;;;;7.80;4.50;;;;;;;11.94;80.84;100021.11;102422;1116;69506;-67
2021/06/13 01:07:35;;;;;;;6.90;3.90;;;;;;;11.93;80.99;100019.43;102411;1116;84466;-68
2021/06/13 01:09:53;;;;;;;8.20;3.60;;;;;;;11.89;80.79;100017.36;102421;1116;75186;-67
2021/06/13 01:12:06;;;;;;;6.30;4.10;;;;;;;11.86;80.89;100028.59;102410;1114;79778;-64
2021/06/13 01:14:26;;;;;;;6.50;3.70;;;;;;;11.81;81.05;100030.03;102391;1116;67242;-64
2021/06/13 01:16:43;;;;;;;6.70;3.80;;;;;;;11.79;81.04;100028.58;102423;1116;67665;-65
2021/06/13 01:18:59;;;;;;;7.70;3.70;;;;;;;11.72;81.02;100023.17;102383;1117;84489;-64
2021/06/13 01:21:13;;;;;;;10.70;3.40;;;;;;;11.73;80.93;100029.39;102365;1116;74062;-64
2021/06/13 01:24:03;;;;;;;7.00;3.40;;;;;;;11.70;81.12;100027.13;102371;1116;81558;-64
2021/06/13 01:26:38;;;;;;;7.60;3.30;;;;;;;11.66;81.13;100036.64;102388;1116;68141;-66
2021/06/13 01:29:00;;;;;;;7.90;3.90;;;;;;;11.60;81.16;100029.34;102384;1116;69372;-65
2021/06/13 01:31:09;;;;;;;8.90;3.50;;;;;;;11.54;81.21;100030.99;102438;1118;83512;-68
2021/06/13 01:33:18;;;;;;;6.00;4.00;;;;;;;11.55;81.16;100026.42;102422;1117;75420;-67
2021/06/13 01:35:28;;;;;;;9.20;3.60;;;;;;;11.58;80.93;100024.15;102389;1117;80955;-68
2021/06/13 01:37:42;;;;;;;7.30;3.70;;;;;;;11.58;81.10;100020.61;102388;1116;67766;-67
2021/06/13 01:39:56;;;;;;;9.30;3.70;;;;;;;11.55;81.06;100019.14;102428;1116;67697;-66
2021/06/13 01:42:04;;;;;;;;;;;;;;;11.51;81.35;100023.28;102411;1116;83910;-67
2021/06/13 01:44:12;;;;;;;5.70;3.70;;;;;;;11.50;81.32;100023.50;102424;1116;74527;-67
2021/06/13 01:46:22;;;;;;;5.80;3.80;;;;;;;11.44;81.29;100019.74;102434;1116;81746;-64
2021/06/13 01:48:30;;;;;;;6.90;3.50;;;;;;;11.44;81.22;100024.31;102420;1116;68040;-66
2021/06/13 01:50:39;;;;;;;9.10;3.80;;;;;;;11.43;81.33;100012.66;102421;1116;68549;-65
2021/06/13 01:52:53;;;;;;;6.10;3.60;;;;;;;11.37;81.24;100023.47;102399;1116;86066;-64
2021/06/13 01:55:01;;;;;;;4.90;3.90;;;;;;;11.36;81.33;100025.34;102447;1116;75058;-64
2021/06/13 01:57:10;;;;;;;9.00;4.40;;;;;;;11.32;81.45;100023.25;102422;1116;80456;-64
2021/06/13 01:59:21;;;;;;;7.00;3.40;;;;;;;11.31;81.48;100024.28;102408;1116;67436;-64
2021/06/13 02:01:30;;;;;;;7.70;3.80;;;;;;;11.31;81.46;100030.53;102410;1116;67470;-64
2021/06/13 02:03:42;;;;;;;7.30;3.80;;;;;;;11.32;81.49;100026.77;102391;1117;83995;-66
2021/06/13 02:05:53;;;;;;;7.60;3.70;;;;;;;11.30;81.39;100041.53;102405;1117;73916;-67
2021/06/13 02:08:03;;;;;;;8.80;4.00;;;;;;;11.29;81.45;100042.59;102375;1116;81402;-68
2021/06/13 02:10:19;;;;;;;9.60;3.60;;;;;;;11.23;81.47;100031.52;102403;1116;68168;-65
2021/06/13 02:12:26;;;;;;;9.00;3.70;;;;;;;11.24;81.41;100035.90;102426;1116;67288;-66
2021/06/13 02:14:36;;;;;;;7.50;3.60;;;;;;;11.24;81.39;100035.90;102398;1116;84850;-64
2021/06/13 02:16:45;;;;;;;9.60;4.40;;;;;;;11.27;81.48;100048.17;102398;1116;74748;-66
2021/06/13 02:18:56;;;;;;;8.10;3.90;;;;;;;11.23;81.41;100041.52;102360;1116;80938;-64
2021/06/13 02:21:08;;;;;;;6.30;3.30;;;;;;;11.20;81.44;100037.36;102390;1116;67474;-67
2021/06/13 02:23:15;;;;;;;8.10;3.90;;;;;;;11.18;81.56;100034.00;102434;1116;69155;-67
2021/06/13 02:25:24;;;;;;;7.10;3.50;;;;;;;11.17;81.54;100037.76;102398;1115;85449;-67
2021/06/13 02:27:33;;;;;;;8.70;4.40;;;;;;;11.18;81.41;100042.11;102416;1116;74894;-66
2021/06/13 02:29:49;;;;;;;8.70;3.90;;;;;;;11.18;81.60;100038.56;102380;1116;81084;-68
2021/06/13 02:32:00;;;;;;;9.10;4.10;;;;;;;11.20;81.30;100044.63;102383;1116;66884;-64
2021/06/13 02:34:09;;;;;;;8.90;3.50;;;;;;;11.19;81.32;100049.20;102387;1116;67530;-64
2021/06/13 02:36:17;;;;;;;5.80;3.30;;;;;;;11.17;81.56;100050.44;102409;1116;85399;-68
2021/06/13 02:38:25;;;;;;;7.50;3.50;;;;;;;11.20;81.54;100044.63;102421;1114;75365;-67
2021/06/13 02:40:35;;;;;;;7.70;3.60;;;;;;;11.21;81.43;100052.52;102396;1116;81803;-65
2021/06/13 02:42:42;;;;;;;8.30;3.60;;;;;;;11.20;81.43;100050.88;102373;1116;68028;-65
2021/06/13 02:44:53;;;;;;;7.90;3.60;;;;;;;11.25;81.37;100063.78;102380;1116;68696;-65
2021/06/13 02:47:00;;;;;;;8.30;3.60;;;;;;;11.18;81.57;100061.03;102403;1116;85379;-64
2021/06/13 02:49:09;;;;;;;8.90;3.70;;;;;;;11.12;81.66;100059.13;102418;1116;74624;-65
2021/06/13 02:51:20;;;;;;;13.50;3.80;;;;;;;11.12;81.58;100067.23;102422;1116;80861;-63
2021/06/13 02:53:43;;;;;;;7.00;3.10;;;;;;;11.20;81.57;100068.96;102366;1116;67184;-65
2021/06/13 02:55:58;;;;;;;9.10;3.90;;;;;;;11.23;81.61;100065.86;102398;1116;68957;-65
2021/06/13 02:58:17;;;;;;;11.00;3.30;;;;;;;11.31;81.64;100062.98;102417;1116;85126;-64
2021/06/13 03:00:27;;;;;;;7.20;3.90;;;;;;;11.34;81.62;100067.98;102416;1117;74301;-66
2021/06/13 03:02:38;;;;;;;11.30;3.90;;;;;;;11.39;81.70;100062.80;102397;1116;80950;-67
2021/06/13 03:04:48;;;;;;;11.80;4.10;;;;;;;11.44;81.49;100064.88;102416;1116;67760;-66
2021/06/13 03:06:59;;;;;;;5.80;2.90;;;;;;;11.45;81.45;100070.11;102420;1116;67513;-66
2021/06/13 03:09:09;;;;;;;6.80;3.40;;;;;;;11.41;81.32;100071.53;102380;1118;86246;-67
2021/06/13 03:11:18;;;;;;;8.10;3.70;;;;;;;11.43;81.28;100074.86;102454;1116;74130;-65
2021/06/13 03:13:28;;;;;;;7.60;3.70;;;;;;;11.45;81.27;100080.09;102396;1116;80071;-63
2021/06/13 03:15:36;;;;;;;8.30;3.30;;;;;;;11.38;81.49;100092.73;102367;1116;68388;-68
2021/06/13 03:17:44;;;;;;;10.60;3.60;;;;;;;11.41;81.38;100095.03;102415;1116;69493;-67
2021/06/13 03:19:54;;;;;;;8.40;3.20;;;;;;;11.49;81.50;100092.16;102387;1115;84830;-66
2021/06/13 03:22:02;;;;;;;11.40;4.80;;;;;;;11.56;81.53;100088.45;102404;1116;74513;-65
2021/06/13 03:24:12;;;;;;;9.70;3.70;;;;;;;11.69;81.41;100093.09;102392;1116;81968;-65
2021/06/13 03:26:21;;;;;;;7.30;3.30;;;;;;;11.76;81.40;100088.52;102413;1116;67055;-64
2021/06/13 03:28:29;;;;;;;7.70;3.40;;;;;;;11.86;81.45;100102.52;102403;1116;67707;-66
2021/06/13 03:30:37;;;;;;;13.30;3.50;;;;;;;11.85;81.40;100092.71;102414;1118;85353;-66
2021/06/13 03:32:48;;;;;;;10.00;3.40;;;;;;;11.94;81.42;100102.32;102413;1117;73263;-65
2021/06/13 03:34:56;;;;;;;8.70;3.90;;;;;;;12.07;81.33;100101.50;102400;1115;81966;-65
2021/06/13 03:37:05;;;;;;;11.20;4.10;;;;;;;12.17;81.08;100110.88;102404;1118;66699;-63
2021/06/13 03:39:15;;;;;;;9.30;3.30;;;;;;;12.24;80.78;100109.03;102416;1116;68700;-66
2021/06/13 03:41:25;;;;;;;7.70;4.00;;;;;;;12.26;80.85;100117.77;102414;1116;84615;-66
2021/06/13 03:43:34;;;;;;;6.80;3.90;;;;;;;12.28;80.94;100114.84;102394;1116;75118;-63
2021/06/13 03:45:42;;;;;;;9.20;4.00;;;;;;;12.33;80.73;100113.18;102374;1116;81184;-66
2021/06/13 03:47:54;;;;;;;8.20;3.50;;;;;;;12.45;80.85;100107.98;102375;1116;67501;-67
2021/06/13 03:50:05;;;;;;;6.70;3.40;;;;;;;12.73;81.11;100122.16;102424;1116;69311;-67
2021/06/13 03:52:12;;;;;;;11.20;3.60;;;;;;;13.01;80.80;100109.19;102415;1116;83628;-67
2021/06/13 03:54:20;;;;;;;7.60;3.40;;;;;;;13.17;80.52;100126.91;102400;1116;74796;-66
2021/06/13 03:56:35;;;;;;;5.80;3.00;;;;;;;13.25;80.20;100125.83;102398;1117;80660;-66
2021/06/13 03:58:48;;;;;;;7.50;3.20;;;;;;;14.55;81.37;100118.88;102382;1116;67738;-67
2021/06/13 04:00:58;;;;;;;16.30;3.80;;;;;;;16.20;79.90;100120.53;102373;1117;69536;-67
2021/06/13 04:03:07;;;;;;;5.50;2.60;;;;;;;17.41;77.83;100116.13;102384;1118;84824;-67
2021/06/13 04:05:20;;;;;;;9.60;2.70;;;;;;;18.42;75.97;100114.55;102405;1118;73987;-64
2021/06/13 04:07:28;;;;;;;9.60;3.00;;;;;;;18.77;73.71;100115.16;102393;1116;81467;-66
2021/06/13 04:09:37;;;;;;;6.30;2.50;;;;;;;19.31;72.78;100116.26;102389;1116;67379;-63
2021/06/13 04:11:46;;;;;;;6.70;2.60;;;;;;;19.79;70.85;100127.31;102403;1116;68696;-67
2021/06/13 04:13:55;;;;;;;7.20;2.60;;;;;;;19.10;69.44;100126.08;102420;1116;84503;-66
2021/06/13 04:16:06;;;;;;;7.10;2.90;;;;;;;17.96;69.43;100126.56;102371;1116;74441;-66
2021/06/13 04:18:15;;;;;;;5.90;2.80;;;;;;;17.22;69.65;100121.97;102402;1116;80271;-66
2021/06/13 04:20:24;;;;;;;5.40;2.90;;;;;;;16.57;69.81;100123.95;102414;1116;65594;-66
2021/06/13 04:22:32;;;;;;;8.70;2.80;;;;;;;16.15;70.52;100134.03;102397;1116;69474;-68
2021/06/13 04:24:42;;;;;;;6.30;2.60;;;;;;;16.04;71.19;100140.27;102403;1116;85397;-68
2021/06/13 04:26:53;;;;;;;5.40;2.80;;;;;;;15.84;70.88;100144.09;102395;1116;73652;-67
2021/06/13 04:29:04;;;;;;;7.30;2.50;;;;;;;15.52;70.89;100144.52;102401;1116;81998;-66
2021/06/13 04:31:17;;;;;;;6.80;3.10;;;;;;;15.26;71.27;100140.16;102422;1116;67482;-67
2021/06/13 04:33:25;;;;;;;8.30;2.90;;;;;;;15.02;71.51;100144.59;102405;1116;68815;-68
2021/06/13 04:35:33;;;;;;;8.20;3.10;;;;;;;14.63;72.05;100150.38;102406;1115;85130;-64
2021/06/13 04:37:40;;;;;;;7.00;3.40;;;;;;;14.38;72.40;100157.67;102409;1116;75397;-64
2021/06/13 04:39:48;;;;;;;5.00;3.40;;;;;;;14.19;72.71;100148.58;102348;1116;80896;-65
2021/06/13 04:41:57;;;;;;;8.50;2.60;;;;;;;13.96;72.82;100157.27;102388;1116;68587;-67
2021/06/13 04:44:06;;;;;;;7.90;3.20;;;;;;;13.85;73.33;100155.23;102399;1116;67835;-69
2021/06/13 04:46:17;;;;;;;8.80;3.00;;;;;;;13.70;73.66;100162.84;102434;1116;83978;-66
2021/06/13 04:48:25;;;;;;;6.30;2.30;;;;;;;13.60;73.88;100157.86;102400;1116;73914;-66
2021/06/13 04:50:33;;;;;;;7.00;2.70;;;;;;;13.52;74.14;100159.97;102429;1115;80362;-67
2021/06/13 04:52:43;;;;;;;5.40;2.80;;;;;;;13.39;74.12;100166.28;102388;1116;68283;-66
2021/06/13 04:55:19;;;;;;;8.80;2.60;;;;;;;13.36;74.45;100161.28;102391;1116;67984;-65
2021/06/13 04:57:59;;;;;;;6.80;2.70;;;;;;;13.30;74.75;100164.84;102397;1117;84663;-65
2021/06/13 05:00:09;;;;;;;6.60;3.10;;;;;;;13.23;75.03;100174.88;102416;1117;75398;-66
2021/06/13 05:02:18;;;;;;;10.10;3.20;;;;;;;13.17;75.05;100177.59;102378;1115;80624;-67
2021/06/13 05:04:26;;;;;;;5.40;2.40;;;;;;;13.09;75.07;100183.25;102393;1116;67781;-66
2021/06/13 05:06:41;;;;;;;6.80;2.70;;;;;;;13.02;75.49;100172.36;102421;1116;69100;-67
2021/06/13 05:08:48;;;;;;;8.80;2.90;;;;;;;13.06;75.52;100170.91;102405;1116;83962;-68
2021/06/13 05:10:57;;;;;;;6.90;2.70;;;;;;;13.00;75.67;100174.46;102415;1116;74087;-66
2021/06/13 05:13:15;;;;;;;7.30;2.90;;;;;;;12.94;75.70;100180.72;102416;1116;81512;-66
2021/06/13 05:15:25;;;;;;;9.50;3.30;;;;;;;12.97;75.99;100183.85;102400;1116;68134;-75
2021/06/13 05:17:33;;;;;;;9.20;3.80;;;;;;;12.98;76.05;100188.24;102397;1116;68192;-72
2021/06/13 05:19:43;;;;;;;10.20;3.10;;;;;;;12.93;76.19;100192.63;102394;1116;85366;-69
2021/06/13 05:21:54;;;;;;;6.60;2.80;;;;;;;12.88;76.41;100185.10;102398;1116;74589;-69
2021/06/13 05:24:02;;;;;;;8.30;3.00;;;;;;;12.85;76.49;100192.84;102400;1115;80085;-67
2021/06/13 05:26:09;;;;;;;9.60;3.50;;;;;;;12.85;76.58;100190.13;102402;1116;69015;-65
2021/06/13 05:28:21;;;;;;;6.80;2.80;;;;;;;12.82;76.87;100190.55;102404;1116;68021;-64
2021/06/13 05:30:32;;;;;;;8.90;2.90;;;;;;;12.84;76.64;100194.71;102394;1117;85276;-64
2021/06/13 05:32:40;;;;;;;9.70;3.30;;;;;;;12.86;77.25;100206.17;102384;1118;75155;-65
2021/06/13 05:34:47;;;;;;;7.40;3.00;;;;;;;12.82;77.03;100195.97;102401;1118;81315;-64
2021/06/13 05:36:55;;;;;;;7.50;3.20;;;;;;;12.86;76.97;100199.91;102386;1116;68314;-64
2021/06/13 05:39:03;;;;;;;7.50;3.30;;;;;;;12.86;77.19;100198.03;102386;1116;68253;-64
2021/06/13 05:41:15;;;;;;;9.40;3.20;;;;;;;12.92;77.27;100201.79;102401;1116;85007;-65
2021/06/13 05:43:25;;;;;;;7.30;3.10;;;;;;;12.97;77.48;100199.28;102386;1116;75539;-65
2021/06/13 05:45:35;;;;;;;5.90;2.50;;;;;;;12.96;77.83;100201.16;102380;1116;81587;-67
2021/06/13 05:47:43;;;;;;;10.90;3.60;;;;;;;13.08;77.72;100211.40;102387;1116;68140;-68
2021/06/13 05:49:51;;;;;;;6.30;2.90;;;;;;;13.29;77.99;100212.03;102408;1116;68645;-66
2021/06/13 05:52:01;;;;;;;7.00;3.00;;;;;;;13.71;77.98;100209.80;102393;1116;85290;-69
2021/06/13 05:54:09;;;;;;;9.40;3.20;;;;;;;14.18;77.78;100204.80;102390;1116;74983;-68
2021/06/13 05:56:17;;;;;;;6.50;2.60;;;;;;;14.46;77.58;100207.17;102406;1117;82374;-65
2021/06/13 05:58:25;;;;;;;9.20;3.10;;;;;;;14.94;77.66;100201.17;102371;1116;68492;-65
2021/06/13 06:00:38;;;;;;;6.20;2.50;;;;;;;16.15;77.20;100210.34;102386;1116;68029;-65
2021/06/13 06:02:47;;;;;;;8.20;3.40;;;;;;;17.02;76.80;100196.86;102385;1116;85101;-65
2021/06/13 06:04:55;;;;;;;6.70;3.00;;;;;;;18.73;75.91;100199.66;102389;1118;74043;-66
2021/06/13 06:07:04;;;;;;;8.90;2.80;;;;;;;21.07;73.38;100196.96;102389;1118;80941;-64
2021/06/13 06:09:12;;;;;;;10.30;2.40;;;;;;;21.55;69.34;100195.93;102394;1116;66647;-63
2021/06/13 06:11:20;;;;;;;8.20;2.90;;;;;;;21.15;68.07;100210.23;102414;1116;67520;-67
2021/06/13 06:13:27;;;;;;;9.00;3.00;;;;;;;20.59;67.24;100215.20;102395;1116;85558;-67
2021/06/13 06:15:38;;;;;;;6.70;2.80;;;;;;;20.51;67.03;100215.66;102412;1116;75224;-68
2021/06/13 06:17:46;;;;;;;7.40;3.10;;;;;;;20.70;65.21;100218.03;102394;1118;80801;-67
2021/06/13 06:19:54;;;;;;;13.80;3.50;;;;;;;20.10;64.97;100219.00;102384;1116;66139;-67
2021/06/13 06:22:02;;;;;;;5.70;3.20;;;;;;;20.34;65.58;100216.83;102404;1116;68724;-67
2021/06/13 06:24:11;;;;;;;6.70;2.90;;;;;;;21.09;65.59;100219.52;102406;1116;84145;-67
2021/06/13 06:26:20;;;;;;;7.70;2.60;;;;;;;21.85;63.79;100206.26;102438;1116;74049;-68
2021/06/13 06:28:28;;;;;;;10.40;2.70;;;;;;;22.68;63.14;100224.49;102403;1116;81597;-68
2021/06/13 06:30:37;;;;;;;8.00;2.90;;;;;;;22.77;60.25;100225.63;102403;1116;66565;-64
2021/06/13 06:32:46;;;;;;;6.50;3.20;;;;;;;22.61;59.84;100221.96;102429;1116;68471;-64
2021/06/13 06:34:56;;;;;;;11.10;3.00;;;;;;;22.18;60.29;100222.39;102384;1116;85573;-67
2021/06/13 06:37:05;;;;;;;7.40;3.00;;;;;;;21.93;60.43;100225.03;102391;1117;74621;-70
2021/06/13 06:39:14;;;;;;;4.90;2.50;;;;;;;21.34;60.25;100227.97;102407;1116;80026;-68
2021/06/13 06:41:21;;;;;;;5.20;2.60;;;;;;;20.70;60.39;100226.27;102387;1117;66410;-68
2021/06/13 06:43:29;;;;;;;7.00;2.80;;;;;;;20.57;61.78;100236.56;102415;1116;69496;-69
2021/06/13 06:45:37;;;;;;;9.20;2.90;;;;;;;20.44;61.98;100228.74;102408;1116;84909;-70
2021/06/13 06:47:49;;;;;;;6.20;2.60;;;;;;;20.40;61.80;100222.13;102385;1116;74448;-68
2021/06/13 06:49:57;;;;;;;10.00;3.60;;;;;;;19.98;61.31;100230.09;102380;1116;81367;-65
2021/06/13 06:52:06;;;;;;;11.50;3.20;;;;;;;20.60;61.99;100222.33;102385;1116;65358;-67
2021/06/13 06:54:17;;;;;;;7.90;3.10;;;;;;;21.30;61.19;100237.81;102406;1116;69174;-68
2021/06/13 06:56:24;;;;;;;8.60;3.20;;;;;;;22.28;60.77;100233.42;102386;1116;84749;-69
2021/06/13 06:58:32;;;;;;;8.50;2.60;;;;;;;22.25;59.62;100231.21;102370;1116;75347;-66
2021/06/13 07:00:40;;;;;;;9.10;3.00;;;;;;;22.48;59.39;100232.67;102176;1116;80549;-64
2021/06/13 07:02:47;;;;;;;9.70;3.30;;;;;;;22.38;59.34;100230.73;102161;1116;65515;-63
2021/06/13 07:04:57;;;;;;;6.20;2.70;;;;;;;23.14;58.60;100239.13;102137;1116;68675;-64
2021/06/13 07:07:05;;;;;;;6.80;2.50;;;;;;;22.43;57.70;100236.24;102173;1116;84055;-64
2021/06/13 07:09:13;;;;;;;7.80;3.00;;;;;;;21.55;57.40;100249.00;102187;1116;75784;-64
2021/06/13 07:11:21;;;;;;;9.80;3.00;;;;;;;21.15;58.31;100255.00;102143;1116;81031;-64
2021/06/13 07:13:28;;;;;;;6.90;2.50;;;;;;;20.66;59.17;100255.34;102141;1116;65657;-64
2021/06/13 07:15:36;;;;;;;7.50;2.80;;;;;;;20.14;59.69;100257.70;102177;1116;69427;-66
2021/06/13 07:17:48;;;;;;;9.30;3.00;;;;;;;20.17;59.75;100259.94;102168;1116;84862;-68
2021/06/13 07:19:56;;;;;;;9.80;2.90;;;;;;;19.87;59.54;100258.46;102198;1116;75182;-67
2021/06/13 07:22:04;;;;;;;7.90;3.00;;;;;;;19.64;60.62;100249.64;102135;1116;81028;-68
2021/06/13 07:24:12;;;;;;;6.80;3.20;;;;;;;19.42;60.94;100263.26;102159;1116;65462;-68
2021/06/13 07:26:20;;;;;;;8.00;2.80;;;;;;;18.92;60.14;100265.98;102170;1116;68159;-65
2021/06/13 07:28:29;;;;;;;6.30;2.80;;;;;;;18.39;61.01;100273.67;102158;1116;84783;-65
2021/06/13 07:30:37;;;;;;;5.50;2.50;;;;;;;18.33;61.72;100269.17;102165;1116;75403;-68
2021/06/13 07:32:45;;;;;;;8.00;3.00;;;;;;;18.13;62.11;100270.41;102161;1118;80315;-68
2021/06/13 07:34:53;;;;;;;7.90;3.10;;;;;;;17.91;62.68;100274.86;102169;1117;66788;-64
2021/06/13 07:37:05;;;;;;;7.00;2.80;;;;;;;17.70;62.49;100280.95;102167;1116;68712;-63
2021/06/13 07:39:13;;;;;;;5.60;2.80;;;;;;;17.51;62.68;100282.95;102176;1116;86127;-65
2021/06/13 07:41:20;;;;;;;7.90;3.30;;;;;;;17.79;63.73;100279.52;102173;1115;74321;-65
2021/06/13 07:43:28;;;;;;;8.60;3.10;;;;;;;17.90;63.29;100275.95;102159;1115;80400;-63
2021/06/13 07:45:36;;;;;;;8.70;2.80;;;;;;;17.92;63.71;100287.47;102157;1116;65062;-69
2021/06/13 07:47:44;;;;;;;8.80;3.20;;;;;;;17.85;63.69;100284.04;102168;1116;67530;-69
2021/06/13 07:49:52;;;;;;;6.90;2.70;;;;;;;18.01;64.87;100291.50;102138;1116;84513;-69
2021/06/13 07:52:00;;;;;;;6.90;3.10;;;;;;;18.40;63.90;100291.76;102172;1116;74344;-69
2021/06/13 07:54:08;;;;;;;8.30;2.70;;;;;;;18.58;63.87;100294.33;102163;1118;81509;-61
2021/06/13 07:56:16;;;;;;;5.40;2.50;;;;;;;18.77;63.35;100295.80;102211;1117;67220;-61
2021/06/13 07:58:23;;;;;;;9.30;3.20;;;;;;;18.58;63.00;100292.43;102181;1118;68802;-61
2021/06/13 08:00:34;;;;;;;11.00;3.60;;;;;;;18.53;63.21;100296.97;102179;1116;85190;-59
2021/06/13 08:02:43;;;;;;;7.90;2.80;;;;;;;18.45;63.21;100302.80;102145;1116;74761;-59
2021/06/13 08:04:57;;;;;;;8.90;3.20;;;;;;;18.38;62.83;100296.63;102193;1116;81333;-68
2021/06/13 08:07:07;;;;;;;7.80;3.10;;;;;;;18.38;63.01;100294.72;102162;1116;65636;-68
2021/06/13 08:09:19;;;;;;;10.10;3.10;;;;;;;18.43;62.74;100296.75;102180;1116;69113;-68
2021/06/13 08:11:31;;;;;;;5.70;3.00;;;;;;;18.60;63.49;100303.12;102174;1118;84187;-61
2021/06/13 08:13:42;;;;;;;8.80;2.80;;;;;;;18.83;63.40;100313.98;102193;1116;74886;-60
2021/06/13 08:15:52;;;;;;;10.00;3.60;;;;;;;18.80;62.56;100311.73;102154;1117;80009;-60
2021/06/13 08:18:02;;;;;;;8.00;3.80;;;;;;;18.86;62.91;100308.02;102190;1117;67079;-59
2021/06/13 08:20:16;;;;;;;8.60;3.20;;;;;;;19.04;62.54;100304.22;102185;1116;69664;-58
2021/06/13 08:22:23;;;;;;;6.90;3.10;;;;;;;19.11;62.62;100304.91;102196;1116;85081;-59
2021/06/13 08:24:32;;;;;;;8.60;2.90;;;;;;;19.38;62.81;100305.95;102164;1116;75046;-59
2021/06/13 08:26:41;;;;;;;9.80;3.40;;;;;;;19.71;62.95;100313.32;102201;1116;81427;-60
2021/06/13 08:28:49;;;;;;;8.80;3.20;;;;;;;20.00;62.29;100312.09;102148;1116;66489;-60
2021/06/13 08:30:57;;;;;;;8.50;2.90;;;;;;;19.67;61.86;100321.20;102113;1117;68316;-67
2021/06/13 08:33:05;;;;;;;7.60;3.40;;;;;;;19.31;61.26;100321.70;102157;1116;84889;-67
2021/06/13 08:35:15;;;;;;;8.60;3.30;;;;;;;19.04;61.55;100320.64;102207;1116;75840;-58
2021/06/13 08:37:23;;;;;;;7.40;2.70;;;;;;;18.82;61.27;100328.73;102159;1116;81815;-59
2021/06/13 08:39:31;;;;;;;7.50;2.80;;;;;;;18.48;61.63;100333.28;102151;1116;66314;-58
2021/06/13 08:41:38;;;;;;;6.00;2.90;;;;;;;18.13;61.90;100327.00;102177;1116;67566;-59
2021/06/13 08:43:48;;;;;;;10.20;3.90;;;;;;;17.78;61.98;100329.77;102354;1094;85640;-58
2021/06/13 08:46:01;;;;;;;7.00;2.70;;;;;;;17.61;62.56;100343.30;102185;1117;76264;-58
2021/06/13 08:48:11;;;;;;;5.80;3.10;;;;;;;17.45;62.95;100348.59;102159;1118;80997;-58
2021/06/13 08:50:23;;;;;;;8.40;2.60;;;;;;;17.39;63.71;100338.61;102185;1117;67057;-58
2021/06/13 08:52:34;;;;;;;7.40;3.30;;;;;;;17.29;63.53;100349.28;102141;1118;70230;-58
2021/06/13 08:54:46;;;;;;;7.90;3.10;;;;;;;17.17;63.45;100356.63;102158;1117;84811;-58
2021/06/13 08:56:56;;;;;;;9.30;3.10;;;;;;;16.99;64.13;100363.80;102176;1118;75392;-58
2021/06/13 08:59:08;;;;;;;7.00;2.50;;;;;;;16.84;64.22;100374.29;102152;1117;81240;-65
2021/06/13 09:01:16;;;;;;;7.30;2.40;;;;;;;16.75;65.11;100364.78;102157;1117;67332;-67
2021/06/13 09:03:23;;;;;;;8.60;3.10;;;;;;;16.72;64.66;100367.13;102191;1116;67785;-61
2021/06/13 09:05:31;;;;;;;7.10;2.90;;;;;;;16.61;64.92;100366.02;102144;1116;84851;-68
2021/06/13 09:07:52;;;;;;;8.30;2.60;;;;;;;16.62;64.88;100373.11;102155;1116;74803;-67
2021/06/13 09:10:11;;;;;;;7.00;3.00;;;;;;;16.56;65.73;100370.48;102161;1117;80405;-68
2021/06/13 09:12:24;;;;;;;8.70;2.60;;;;;;;16.61;65.63;100374.20;102178;1117;66035;-60
2021/06/13 09:14:41;;;;;;;10.20;2.80;;;;;;;16.60;65.60;100383.42;102175;1117;69909;-60
2021/06/13 09:16:49;;;;;;;9.10;3.40;;;;;;;16.51;66.19;100387.48;102171;1116;85362;-63
2021/06/13 09:18:57;;;;;;;9.40;3.80;;;;;;;16.42;66.53;100388.88;102167;1116;75193;-63
2021/06/13 09:21:10;;;;;;;8.80;3.00;;;;;;;16.48;66.52;100390.69;102151;1116;81507;-63
2021/06/13 09:23:19;;;;;;;7.00;2.80;;;;;;;16.46;66.94;100401.81;102174;1117;68184;-70
2021/06/13 09:25:27;;;;;;;9.90;3.70;;;;;;;16.47;67.00;100399.92;102195;1118;69822;-69
2021/06/13 09:27:34;;;;;;;8.00;3.50;;;;;;;16.50;66.94;100403.03;102202;1116;85090;-64
2021/06/13 09:29:54;;;;;;;8.20;3.10;;;;;;;16.57;66.76;100399.41;102157;1116;75467;-64
2021/06/13 09:32:10;;;;;;;8.30;3.30;;;;;;;16.69;66.48;100401.16;102181;1116;80189;-59
2021/06/13 09:34:22;;;;;;;7.70;2.90;;;;;;;16.78;66.67;100404.41;102214;1116;66581;-64
2021/06/13 09:36:32;;;;;;;9.70;2.70;;;;;;;16.87;66.85;100405.73;102202;1116;68556;-68
2021/06/13 09:38:44;;;;;;;8.70;3.00;;;;;;;17.02;67.35;100407.02;102215;1116;84228;-64
2021/06/13 09:41:00;;;;;;;7.70;2.80;;;;;;;17.20;66.85;100410.73;102176;1116;75458;-62
2021/06/13 09:43:21;;;;;;;6.80;3.10;;;;;;;17.40;67.11;100408.55;102154;1115;81260;-67
2021/06/13 09:45:32;;;;;;;9.30;2.80;;;;;;;17.64;66.16;100408.41;102198;1115;65970;-71
2021/06/13 09:47:40;;;;;;;6.40;3.00;;;;;;;17.81;66.51;100407.71;102178;1116;68778;-71
2021/06/13 09:49:50;;;;;;;10.30;3.20;;;;;;;18.10;66.14;100404.86;102189;1116;84505;-71
2021/06/13 09:52:05;;;;;;;6.40;3.00;;;;;;;18.47;65.92;100397.23;102184;1116;73420;-70
2021/06/13 09:54:26;;;;;;;7.80;3.70;;;;;;;18.79;65.14;100401.22;102158;1116;81534;-71
2021/06/13 09:56:36;;;;;;;8.20;3.30;;;;;;;18.96;65.00;100409.49;102173;1115;65119;-71
2021/06/13 09:59:07;;;;;;;8.20;3.10;;;;;;;19.12;64.64;100403.23;102178;1116;69526;-65